EGQL/ADX METAR and TAF weather

Enter ICAO airport designator
Station Type Date Time Source
EGQL METAR 2019/08/22 02:50 UTC NOAA

EGQL 220250Z 27004KT CAVOK 10/09 Q1014 BLU


Station Type Date Time Source
EGQL Decoded METAR 2019/08/22 02:50 UTC NOAA

Station name not available
Aug 21, 2019 - 10:50 PM EDT / 2019.08.22 0250 UTC
Wind: from the W (270 degrees) at 5 MPH (4 KT):0
Visibility: greater than 7 mile(s):0
Temperature: 50 F (10 C)
Dew Point: 48 F (9 C)
Relative Humidity: 93%
Pressure (altimeter): 29.94 in. Hg (1014 hPa)
ob: EGQL 220250Z 27004KT CAVOK 10/09 Q1014 BLU
cycle: 3

Station Type Date Time Source
EGQL TAF 2011/07/27 06:03 UTC NOAA

TAF TAF
AMD EGQL 270424Z 2706/2724 14005KT 9999 BKN020 PROB30
TEMPO 2706/2708 SCT012
BECMG 2708/2710 SCT025

Example: see airport list